Weather at Portsmouth International at Pease Airport

Public forecast

Using degrees Fahrenheit for public forecast. Weather courtesy of forecast.io.

Current aviation weather report (METAR) for Portsmouth International at Pease Airport

Retrieved 2020/11/28 08:56 UTC (53 minutes ago):

KPSM 280856Z 00000KT 10SM FEW060 FEW250 05/02 A2989 RMK AO2A SLP125 T00520017 57008

Aviation forecast (TAF) for Portsmouth International at Pease Airport

Retrieved 2020/11/28 06:24 UTC (3 hours ago):

TAF KPSM 280520Z 2806/2906 25004KT P6SM OVC070 FM281600 29006KT P6SM BKN050